Mark Center, OH

7:40 PM EDT on September 02, 2014 (GMT -0400)
Fort Wayne International | Change Station
CLOSE
Current Station
Airport
Location: Fort Wayne,
Elevation: 827 ft
Nearby Weather Stations

Elev 827 ft 40.98 °N, 85.19 °W | Updated 46 minutes ago

Mostly Cloudy
Mostly Cloudy
72 °F
Feels Like 72 °F
N
6
Wind Variable Wind from WSW

Today
High -- | Low -- °F
--% Chance of Precip.
Yesterday
High -- | Low -- °F
Precip. -- in
7:05 AM 8:09 PM
First Quarter, 56% visible
Pressure 29.90 in
Visibility 10.0 miles
Clouds Few 3600 ft
Scattered Clouds 4700 ft
Mostly Cloudy 9000 ft
Mostly Cloudy 25000 ft
Dew Point 68 °F
Humidity 87%
Rainfall 0.17 in
Snow Depth Not available.
UV 0 out of 12
Pollen 4.10 out of 12
Air Quality Not available.
Flu Activity Not available.
METAR KFWA 022254Z 25005KT 10SM FEW036 SCT047 BKN090 BKN250 22/20 A2992 RMK AO2 RAB30E51 SLP125 P0000 T02220200

More Conditions Fewer Conditions

Pressure 29.90 in
Visibility 10.0 miles
Clouds Few 3600 ft
Scattered Clouds 4700 ft
Mostly Cloudy 9000 ft
Mostly Cloudy 25000 ft
Dew Point 68 °F
Humidity 87%
Rainfall 0.17 in
Snow Depth Not available.
UV 0 out of 12
Pollen 4.10 out of 12
Air Quality Not available.
Flu Activity Not available.
METAR KFWA 022254Z 25005KT 10SM FEW036 SCT047 BKN090 BKN250 22/20 A2992 RMK AO2 RAB30E51 SLP125 P0000 T02220200

More Conditions Fewer Conditions

10-Day Weather Forecast

Almanac

Astronomy

Sep. 02, 2014 Rise Set
Actual Time 7:05 AM EDT 8:09 PM EDT
Civil Twilight 6:37 AM EDT 8:37 PM EDT
Nautical Twilight 6:03 AM EDT 9:11 PM EDT
Astronomical Twilight 5:28 AM EDT 9:46 PM EDT
Moon 2:53 PM EDT 12:07 AM EDT
Length of Visible Light 14h 00m
Length of Day
13h 03m
Tomorrow will be 2m 40s shorter.
First Quarter, 56% of the Moon is Illuminated
Today
First Quarter
Sep 8
Full
Sep 15
Last Quarter
Sep 24
New
Oct 1
First Quarter

Today's Extremes

State Highs State Lows

Community

WunderPhotos

Upload Photos

1,749,799 photos uploaded!

Nearby

Snow Depth

Station Depth Elevation
No new snow has been reported.

Earthquake Activity

City Distance Mag. Time & Date
No recent earthquake activity has been reported nearby.
Minimum magnitude displayed is 2.5.

Coastal Water Temperatures

Place Temperature
No Stations Reporting

Nearby Weather Stations